Weather at Heubach Airport

Public forecast

Using degrees Celsius for public forecast. Weather courtesy of forecast.io.

Closest aviation weather report (METAR) to Heubach Airport

Closest report is Adolf Würth Airport, 19.8 nm (36.6 km) NNW. Retrieved 2020/09/24 20:20 UTC (22 minutes ago):

EDTY 242020Z AUTO VRB02KT 9999 // SCT071/// OVC087/// 15/14 Q1003

Closest aviation forecast (TAF) to Heubach Airport

Closest forecast is Stuttgart Airport, 28.7 nm (53.2 km) WSW. Retrieved 2020/09/24 18:27 UTC (2 hours ago):

TAF TAF EDDS 241700Z 2418/2518 VRB03KT 9999 SCT035 TEMPO 2418/2423 SHRA BKN030CB PROB30 TEMPO 2418/2421 22015G25KT 4000 TSRA